KFZY

Details ICAO KFZY
Name OSWEGO CO
Region United States
Timezone America/New_York (UTC-5.0)
Plans Departing 3
Arriving 1
Stats Elevation 475 ft / 145 m (AMSL)
Location 43.350713° -76.388058°
Runways 2
Magnetic Variation 12.269° W
Sunrise 2017-12-17 12:34:00 UTC / 2017-12-17 07:34:00 Local
Sunset 2017-12-17 21:32:17 UTC / 2017-12-17 16:32:17 Local
Advertisement - Login to hide

Runways

ID Width Length Bearing (true) Bearing (mag) Surface Threshold Offset Overrun Length
06 100 ft / 30 m 3,992 ft / 1,217 m 46.81° 59.08° Asphalt 0 ft / 0 m 0 ft / 0 m
15 100 ft / 30 m 5,194 ft / 1,583 m 136.99° 149.26° Asphalt 0 ft / 0 m 0 ft / 0 m
24 100 ft / 30 m 3,992 ft / 1,217 m 226.82° 239.09° Asphalt 0 ft / 0 m 0 ft / 0 m
33 100 ft / 30 m 5,194 ft / 1,583 m 317.00° 329.27° Asphalt 0 ft / 0 m 0 ft / 0 m

Map

Weather


0- 5 10 15 20 25 30 35+ Temperature / ° C

Clouds and Precipitation
Forecast for 2017-12-18 00:00 UTC. Updated an hour ago

Ground ~20,000 ft ~40,000 ft Winds

METAR

KFZY 171954Z AUTO 07003KT 10SM CLR M06/M11 A3026 RMK AO2 SLP256 T10611111

TAF

Not found

Frequencies

Recorded 119.27 MHz ASOS
Approach 134.27 MHz SYRACUSE APP/DEP
Unicom 123.00 MHz CTAF/UNICOM
Warning: Do not use this data for real-world aviation or navigation. No guarantee of current accuracy is given.